Terminal Aerodrome Forecast
Issued by NWS Norman, OK

Home | Current Version | Previous Version | Text Only | Print | Product List | Glossary On
Versions: 1 2 3 4 5 6 7 8 9 10 11 12 13 14 15
000
FTUS44 KOUN 181138
TAFSPS
TAF
KSPS 181138Z 1812/1912 13004KT 1/4SM FG VV002
     FM181700 16007KT 1SM BR BKN005
     FM181900 17008KT P6SM SCT015 SCT250
     FM190300 17007KT 1SM BR OVC005=

USA.gov is the U.S. government's official web portal to all federal, state and local government web resources and services.